Wells Municipal-Harriet, NV

12:13 AM PDT on August 21, 2014 (GMT -0700)
MesoWest HD Summit NV US NV DOT | Change Station
CLOSE
Current Station
Personal Weather Station
Location: Wells, NV
Elevation: 6282 ft
Nearby Weather Stations

Elev 6282 ft 41.35 °N, 114.81 °W | Updated 28 minutes ago

Mostly Cloudy
Mostly Cloudy
61 °F
Feels Like 61 °F
N
8
Wind Variable Wind from SE
Gusts 10.0 mph

Today
High -- | Low -- °F
--% Chance of Precip.
Yesterday
High -- | Low -- °F
Precip. -- in
5:55 AM 7:29 PM
Waning Crescent, 16% visible
Pressure 29.77 in
Visibility 10.0 miles
Clouds Mostly Cloudy 11000 ft
Dew Point 46 °F
Humidity 57%
Rainfall -999.00 in
Snow Depth Not available.
UV 0 out of 12
Pollen 8.00 out of 12
Air Quality Not available.
Flu Activity Not available.
METAR KEKO 210656Z AUTO 14006KT 10SM BKN110 22/04 A2996 RMK AO2 SLP081 T02170039

More Conditions Fewer Conditions

Pressure 29.77 in
Visibility 10.0 miles
Clouds Mostly Cloudy 11000 ft
Dew Point 46 °F
Humidity 57%
Rainfall -999.00 in
Snow Depth Not available.
UV 0 out of 12
Pollen 8.00 out of 12
Air Quality Not available.
Flu Activity Not available.
METAR KEKO 210656Z AUTO 14006KT 10SM BKN110 22/04 A2996 RMK AO2 SLP081 T02170039

More Conditions Fewer Conditions

10-Day Weather Forecast

Almanac

Astronomy

Aug. 21, 2014 Rise Set
Actual Time 5:55 AM PDT 7:29 PM PDT
Civil Twilight 5:26 AM PDT 7:58 PM PDT
Nautical Twilight 4:51 AM PDT 8:33 PM PDT
Astronomical Twilight 4:13 AM PDT 9:10 PM PDT
Moon 2:28 AM PDT 5:01 PM PDT
Length of Visible Light 14h 32m
Length of Day
13h 34m
Tomorrow will be 2m 31s shorter.
Waning Crescent, 16% of the Moon is Illuminated
Today
Waning Crescent
Aug 25
New
Sep 2
First Quarter
Sep 8
Full
Sep 15
Last Quarter

Community

WunderPhotos

Upload Photos

1,745,858 photos uploaded!

Nearby

Snow Depth

Station Depth Elevation
Dorsey Basin 0 in 8100 ft
Lamoille #3 0 in 7700 ft
Draw Creek 0 in 7200 ft
Seventysix Creek 0 in 7100 ft
Taylor Canyon 1 in 6200 ft

Earthquake Activity

City Distance Mag. Time & Date
No recent earthquake activity has been reported nearby.
Minimum magnitude displayed is 2.5.

Coastal Water Temperatures

Place Temperature
No Stations Reporting

Nearby Weather Stations